TimeMST,TemperatureF,Dew PointF,Humidity,Sea Level PressureIn,VisibilityMPH,Wind Direction,Wind SpeedMPH,Gust SpeedMPH,PrecipitationIn,Events,Conditions,WindDirDegrees,DateUTC
12:57 AM,84.0,68.0,58,29.81,10.0,Calm,Calm,-,N/A,,Clear,0,2013-09-12 07:57:00
1:57 AM,82.9,69.1,63,29.81,10.0,Calm,Calm,-,N/A,,Clear,0,2013-09-12 08:57:00
2:57 AM,82.9,70.0,65,29.79,10.0,ENE,4.6,-,N/A,,Clear,70,2013-09-12 09:57:00
3:57 AM,81.0,69.1,67,29.79,10.0,NNE,3.5,-,N/A,,Clear,20,2013-09-12 10:57:00
4:57 AM,81.0,69.1,67,29.79,10.0,NNE,3.5,-,N/A,,Clear,20,2013-09-12 11:57:00
5:57 AM,81.0,69.1,67,29.80,10.0,ENE,3.5,-,N/A,,Clear,60,2013-09-12 12:57:00
6:57 AM,82.0,66.0,58,29.82,10.0,NE,9.2,-,N/A,,Clear,40,2013-09-12 13:57:00
7:57 AM,84.0,64.9,53,29.83,10.0,NNE,11.5,-,N/A,,Clear,30,2013-09-12 14:57:00
8:57 AM,88.0,64.9,46,29.84,10.0,NNE,8.1,-,N/A,,Clear,20,2013-09-12 15:57:00
9:57 AM,93.0,61.0,34,29.83,10.0,NNE,5.8,-,N/A,,Clear,30,2013-09-12 16:57:00
10:57 AM,96.1,57.9,28,29.82,10.0,East,6.9,-,N/A,,Clear,80,2013-09-12 17:57:00
11:57 AM,98.1,55.9,24,29.80,10.0,Variable,5.8,-,N/A,,Clear,0,2013-09-12 18:57:00
12:57 PM,99.0,55.9,24,29.78,10.0,Variable,4.6,-,N/A,,Partly Cloudy,0,2013-09-12 19:57:00
1:57 PM,102.0,51.1,18,29.75,10.0,North,10.4,-,N/A,,Partly Cloudy,350,2013-09-12 20:57:00
2:57 PM,102.0,48.0,16,29.73,10.0,Variable,3.5,-,N/A,,Partly Cloudy,0,2013-09-12 21:57:00
3:57 PM,102.0,46.9,16,29.71,10.0,Calm,Calm,-,N/A,,Scattered Clouds,0,2013-09-12 22:57:00
4:57 PM,102.0,48.0,16,29.69,10.0,Calm,Calm,-,N/A,,Partly Cloudy,0,2013-09-12 23:57:00
5:57 PM,100.0,48.0,17,29.68,10.0,Calm,Calm,-,N/A,,Partly Cloudy,0,2013-09-13 00:57:00
6:57 PM,96.1,55.0,25,29.69,10.0,WSW,6.9,-,N/A,,Clear,250,2013-09-13 01:57:00
7:57 PM,95.0,55.0,26,29.69,10.0,WSW,5.8,-,N/A,,Clear,250,2013-09-13 02:57:00
8:57 PM,91.9,57.0,31,29.70,10.0,West,4.6,-,N/A,,Clear,270,2013-09-13 03:57:00
9:57 PM,89.1,57.9,35,29.70,7.0,WNW,4.6,-,N/A,,Clear,290,2013-09-13 04:57:00
10:57 PM,88.0,55.9,34,29.71,7.0,WNW,5.8,-,N/A,,Clear,290,2013-09-13 05:57:00
11:57 PM,87.1,54.0,32,29.71,7.0,WNW,4.6,-,N/A,,Clear,300,2013-09-13 06:57:00